createdAt,value
2019-02-28T00:00:40.716Z,13.60
2019-02-28T00:03:10.782Z,15.70
2019-02-28T00:05:39.944Z,13.95
2019-02-28T00:08:08.732Z,13.00
2019-02-28T00:10:37.549Z,15.15
2019-02-28T00:13:06.448Z,13.10
2019-02-28T00:15:35.304Z,13.30
2019-02-28T00:18:04.401Z,13.83
2019-02-28T00:20:33.464Z,13.40
2019-02-28T00:23:02.243Z,12.23
2019-02-28T00:25:31.303Z,13.80
2019-02-28T00:28:00.284Z,13.10
2019-02-28T00:30:29.368Z,12.90
2019-02-28T00:32:59.343Z,14.97
2019-02-28T00:35:29.602Z,13.65
2019-02-28T00:37:58.528Z,13.30
2019-02-28T00:40:27.468Z,13.67
2019-02-28T00:42:56.349Z,13.80
2019-02-28T00:45:25.332Z,12.50
2019-02-28T00:47:54.256Z,13.15
2019-02-28T00:50:23.521Z,13.83
2019-02-28T00:52:52.424Z,13.77
2019-02-28T00:55:21.313Z,13.93
2019-02-28T00:57:50.105Z,13.18
2019-02-28T01:00:19.481Z,13.45
2019-02-28T01:02:52.138Z,13.53
2019-02-28T01:05:19.296Z,13.45
2019-02-28T01:07:49.077Z,14.95
2019-02-28T01:10:18.147Z,15.80
2019-02-28T01:12:47.124Z,20.10
2019-02-28T01:15:16.480Z,14.70
2019-02-28T01:17:45.421Z,14.50
2019-02-28T01:20:16.301Z,13.58
2019-02-28T01:22:44.997Z,13.70
2019-02-28T01:25:14.425Z,14.33
2019-02-28T01:27:43.425Z,13.98
2019-02-28T01:30:12.884Z,14.15
2019-02-28T01:32:41.870Z,13.45
2019-02-28T01:35:11.372Z,15.30
2019-02-28T01:37:40.328Z,14.90
2019-02-28T01:40:09.887Z,15.78
2019-02-28T01:42:38.824Z,14.23
2019-02-28T01:45:09.786Z,13.85
2019-02-28T01:47:39.262Z,15.23
2019-02-28T01:50:08.233Z,13.70
2019-02-28T01:52:37.138Z,13.83
2019-02-28T01:55:06.676Z,14.90
2019-02-28T01:57:35.559Z,13.98
2019-02-28T02:00:05.820Z,14.75
2019-02-28T02:02:38.083Z,13.70
2019-02-28T02:05:06.248Z,13.68
2019-02-28T02:07:35.473Z,14.63
2019-02-28T02:10:07.165Z,14.07
2019-02-28T02:12:35.964Z,13.90
2019-02-28T02:15:07.045Z,14.28
2019-02-28T02:17:36.269Z,14.05
2019-02-28T02:20:06.108Z,14.55
2019-02-28T02:22:34.931Z,13.43
2019-02-28T02:25:04.263Z,14.43
2019-02-28T02:27:33.412Z,14.40
2019-02-28T02:30:02.313Z,15.15
2019-02-28T02:32:37.041Z,12.47
2019-02-28T02:35:07.835Z,13.32
2019-02-28T02:37:32.540Z,12.68
2019-02-28T02:40:01.600Z,14.28
2019-02-28T02:42:30.433Z,13.20
2019-02-28T02:44:59.345Z,12.20
2019-02-28T02:47:32.436Z,12.53
2019-02-28T02:49:58.881Z,13.20
2019-02-28T02:52:30.391Z,15.20
2019-02-28T02:54:58.326Z,13.50
2019-02-28T02:57:27.313Z,14.63
2019-02-28T02:59:56.245Z,13.93
2019-02-28T03:02:37.708Z,13.50
2019-02-28T03:05:07.353Z,12.82
2019-02-28T03:07:36.597Z,13.48
2019-02-28T03:10:07.225Z,13.30
2019-02-28T03:12:36.124Z,14.68
2019-02-28T03:15:05.486Z,12.55
2019-02-28T03:17:34.426Z,13.40
2019-02-28T03:20:07.482Z,15.20
2019-02-28T03:22:34.468Z,15.20
2019-02-28T03:25:03.408Z,14.75
2019-02-28T03:27:32.328Z,15.72
2019-02-28T03:30:01.243Z,16.30
2019-02-28T03:32:39.709Z,16.57
2019-02-28T03:35:00.812Z,15.53
2019-02-28T03:37:33.223Z,13.98
2019-02-28T03:40:04.330Z,15.68
2019-02-28T03:42:31.125Z,14.80
2019-02-28T03:45:00.009Z,15.08
2019-02-28T03:47:28.941Z,15.53
2019-02-28T03:49:57.965Z,13.20
2019-02-28T03:52:26.780Z,12.80
2019-02-28T03:54:55.716Z,12.28
2019-02-28T03:57:29.312Z,13.65
2019-02-28T03:59:56.712Z,13.22
2019-02-28T04:02:25.983Z,13.83
2019-02-28T04:04:54.956Z,13.58
2019-02-28T04:07:24.136Z,12.80
2019-02-28T04:09:53.063Z,12.98
2019-02-28T04:12:21.977Z,12.40
2019-02-28T04:14:50.952Z,13.22
2019-02-28T04:17:40.552Z,14.18
2019-02-28T04:20:09.946Z,13.15
2019-02-28T04:22:38.813Z,13.13
2019-02-28T04:25:07.834Z,13.98
2019-02-28T04:27:40.494Z,13.15
2019-02-28T04:30:09.374Z,14.13
2019-02-28T04:32:38.181Z,12.98
2019-02-28T04:35:07.473Z,13.75
2019-02-28T04:37:36.365Z,14.20
2019-02-28T04:40:06.513Z,13.88
2019-02-28T04:42:36.670Z,13.88
2019-02-28T04:45:07.760Z,13.55
2019-02-28T04:47:37.205Z,14.45
2019-02-28T04:50:07.976Z,15.98
2019-02-28T04:52:37.536Z,15.83
2019-02-28T04:55:06.820Z,14.80
2019-02-28T04:57:35.731Z,15.98
2019-02-28T05:00:05.849Z,17.07
2019-02-28T05:02:35.427Z,16.25
2019-02-28T05:05:04.511Z,14.65
2019-02-28T05:07:33.472Z,14.68
2019-02-28T05:10:02.400Z,13.88
2019-02-28T05:12:31.206Z,16.37
2019-02-28T05:15:02.507Z,14.83
2019-02-28T05:17:30.660Z,13.25
2019-02-28T05:19:59.588Z,14.05
2019-02-28T05:22:28.635Z,13.90
2019-02-28T05:24:58.060Z,14.80
2019-02-28T05:27:26.854Z,16.35
2019-02-28T05:29:56.039Z,13.88
2019-02-28T05:32:24.936Z,16.67
2019-02-28T05:34:53.748Z,15.25
2019-02-28T05:37:22.953Z,15.40
2019-02-28T05:39:52.012Z,14.98
2019-02-28T05:42:23.351Z,13.80
2019-02-28T05:44:51.547Z,15.75
2019-02-28T05:47:20.436Z,18.90
2019-02-28T05:49:49.492Z,19.27
2019-02-28T05:52:18.384Z,24.75
2019-02-28T05:54:50.307Z,23.80
2019-02-28T05:57:17.983Z,25.08
2019-02-28T05:59:46.815Z,23.40
2019-02-28T06:02:19.014Z,19.00
2019-02-28T06:04:46.278Z,18.90
2019-02-28T06:07:15.179Z,18.25
2019-02-28T06:09:45.556Z,16.97
2019-02-28T06:12:14.816Z,15.97
2019-02-28T06:14:43.745Z,16.00
2019-02-28T06:17:12.695Z,18.07
2019-02-28T06:19:43.545Z,20.83
2019-02-28T06:22:12.287Z,20.23
2019-02-28T06:24:44.865Z,18.67
2019-02-28T06:27:12.077Z,20.23
2019-02-28T06:29:40.908Z,22.17
2019-02-28T06:32:09.775Z,19.90
2019-02-28T06:34:39.439Z,19.73
2019-02-28T06:37:09.607Z,19.17
2019-02-28T06:39:38.492Z,19.50
2019-02-28T06:42:07.596Z,18.60
2019-02-28T06:44:37.864Z,19.50
2019-02-28T06:47:07.056Z,19.50
2019-02-28T06:49:40.950Z,18.87
2019-02-28T06:52:06.472Z,18.10
2019-02-28T06:54:35.297Z,18.63
2019-02-28T06:57:04.175Z,19.47
2019-02-28T06:59:33.006Z,19.33
2019-02-28T07:02:01.979Z,18.00
2019-02-28T07:04:30.780Z,19.00
2019-02-28T07:06:59.653Z,19.33
2019-02-28T07:09:30.396Z,19.40
2019-02-28T07:11:59.070Z,19.73
2019-02-28T07:14:28.084Z,18.87
2019-02-28T07:16:56.958Z,18.83
2019-02-28T07:19:26.492Z,20.47
2019-02-28T07:21:56.167Z,20.13
2019-02-28T07:24:25.069Z,19.20
2019-02-28T07:26:54.037Z,19.73
2019-02-28T07:29:22.975Z,20.60
2019-02-28T07:31:52.056Z,18.57
2019-02-28T07:34:23.792Z,19.70
2019-02-28T07:36:51.446Z,21.27
2019-02-28T07:39:20.234Z,20.20
2019-02-28T07:41:49.044Z,18.80
2019-02-28T07:44:21.098Z,18.77
2019-02-28T07:46:48.449Z,14.97
2019-02-28T07:49:17.271Z,17.80
2019-02-28T07:51:46.494Z,18.70
2019-02-28T07:54:15.971Z,20.10
2019-02-28T07:56:45.545Z,21.13
2019-02-28T07:59:14.333Z,21.93
2019-02-28T08:01:43.300Z,23.50
2019-02-28T08:04:12.271Z,27.40
2019-02-28T08:06:41.313Z,23.77
2019-02-28T08:09:27.797Z,23.60
2019-02-28T08:11:56.838Z,23.53
2019-02-28T08:14:25.802Z,22.57
2019-02-28T08:16:54.780Z,23.00
2019-02-28T08:19:27.093Z,24.00
2019-02-28T08:21:54.168Z,22.00
2019-02-28T08:24:23.212Z,24.57
2019-02-28T08:26:53.467Z,22.80
2019-02-28T08:29:22.608Z,22.40
2019-02-28T08:31:51.388Z,23.43
2019-02-28T08:34:20.573Z,23.23
2019-02-28T08:36:51.147Z,21.60
2019-02-28T08:39:20.430Z,23.23
2019-02-28T08:41:49.679Z,22.60
2019-02-28T08:44:22.463Z,22.20
2019-02-28T08:46:49.513Z,22.40
2019-02-28T08:49:18.380Z,24.30
2019-02-28T08:51:47.188Z,22.37
2019-02-28T08:54:16.048Z,25.10
2019-02-28T08:56:46.131Z,25.73
2019-02-28T08:59:19.637Z,25.90
2019-02-28T09:01:46.218Z,23.07
2019-02-28T09:04:15.069Z,23.30
2019-02-28T09:06:43.965Z,22.13
2019-02-28T09:09:14.696Z,23.30
2019-02-28T09:11:44.173Z,23.20
2019-02-28T09:14:14.745Z,23.30
2019-02-28T09:16:43.809Z,23.03
2019-02-28T09:19:12.617Z,23.53
2019-02-28T09:21:41.581Z,23.10
2019-02-28T09:24:12.518Z,23.37
2019-02-28T09:26:41.324Z,20.60
2019-02-28T09:29:10.152Z,22.63
2019-02-28T09:31:39.830Z,22.80
2019-02-28T09:34:09.323Z,22.33
2019-02-28T09:36:38.288Z,22.67
2019-02-28T09:39:08.300Z,22.17
2019-02-28T09:41:40.226Z,21.60
2019-02-28T09:44:08.157Z,21.90
2019-02-28T09:46:37.017Z,21.57
2019-02-28T09:49:09.097Z,21.57
2019-02-28T09:51:36.551Z,20.90
2019-02-28T09:54:05.842Z,20.30
2019-02-28T09:56:34.846Z,21.80
2019-02-28T09:59:03.967Z,20.57
2019-02-28T10:01:32.854Z,19.77
2019-02-28T10:04:01.789Z,20.57
2019-02-28T10:06:30.728Z,21.30
2019-02-28T10:08:59.914Z,21.50
2019-02-28T10:11:31.892Z,20.40
2019-02-28T10:14:00.053Z,20.97
2019-02-28T10:16:29.160Z,22.13
2019-02-28T10:18:58.450Z,21.90
2019-02-28T10:21:27.464Z,20.23
2019-02-28T10:23:57.055Z,22.67
2019-02-28T10:26:27.133Z,21.87
2019-02-28T10:28:55.938Z,22.00
2019-02-28T10:31:35.155Z,22.40
2019-02-28T10:33:55.472Z,19.90
2019-02-28T10:36:24.630Z,21.90
2019-02-28T10:38:53.748Z,20.07
2019-02-28T10:41:24.289Z,20.00
2019-02-28T10:43:55.861Z,19.57
2019-02-28T10:46:23.936Z,19.50
2019-02-28T10:48:52.894Z,17.10
2019-02-28T10:51:22.198Z,21.20
2019-02-28T10:53:51.034Z,18.57
2019-02-28T10:56:19.915Z,18.50
2019-02-28T10:58:50.158Z,17.57
2019-02-28T11:01:19.506Z,17.73
2019-02-28T11:03:48.468Z,19.27
2019-02-28T11:06:17.396Z,16.90
2019-02-28T11:08:47.517Z,16.10
2019-02-28T11:11:17.560Z,16.93
2019-02-28T11:13:46.820Z,17.27
2019-02-28T11:16:15.851Z,16.70
2019-02-28T11:18:44.772Z,18.30
2019-02-28T11:21:13.997Z,17.87
2019-02-28T11:23:42.788Z,18.30
2019-02-28T11:26:11.655Z,17.77
2019-02-28T11:28:40.496Z,16.33
2019-02-28T11:31:11.157Z,17.57
2019-02-28T11:33:40.453Z,16.57
2019-02-28T11:36:10.026Z,16.83
2019-02-28T11:38:38.904Z,16.20
2019-02-28T11:41:07.758Z,16.57
2019-02-28T11:43:38.408Z,16.30
2019-02-28T11:46:08.290Z,16.60
2019-02-28T11:48:37.224Z,17.57
2019-02-28T11:51:06.230Z,17.10
2019-02-28T11:53:39.268Z,17.87
2019-02-28T11:56:06.154Z,17.00
2019-02-28T11:58:35.049Z,15.70
2019-02-28T12:01:10.075Z,16.80
2019-02-28T12:03:35.539Z,17.07
2019-02-28T12:06:06.826Z,16.50
2019-02-28T12:08:36.050Z,15.93
2019-02-28T12:11:05.264Z,15.50
2019-02-28T12:13:34.176Z,16.43
2019-02-28T12:16:03.848Z,16.57
2019-02-28T12:18:32.715Z,15.40
2019-02-28T12:21:03.546Z,14.43
2019-02-28T12:23:32.572Z,16.87
2019-02-28T12:26:01.433Z,15.93
2019-02-28T12:28:30.333Z,15.43
2019-02-28T12:31:00.237Z,14.73
2019-02-28T12:33:29.981Z,15.80
2019-02-28T12:35:59.085Z,15.03
2019-02-28T12:38:29.223Z,15.30
2019-02-28T12:40:58.381Z,14.50
2019-02-28T12:43:27.376Z,13.73
2019-02-28T12:45:59.818Z,14.63
2019-02-28T12:48:27.532Z,14.00
2019-02-28T12:50:56.456Z,14.10
2019-02-28T12:53:25.481Z,15.50
2019-02-28T12:55:54.792Z,15.00
2019-02-28T12:58:23.652Z,15.40
2019-02-28T13:00:56.388Z,15.67
2019-02-28T13:03:23.158Z,15.17
2019-02-28T13:05:52.121Z,17.23
2019-02-28T13:08:21.100Z,16.17
2019-02-28T13:10:50.083Z,15.30
2019-02-28T13:13:21.677Z,17.63
2019-02-28T13:15:49.774Z,16.63
2019-02-28T13:18:19.497Z,17.37
2019-02-28T13:20:48.466Z,17.00
2019-02-28T13:23:17.344Z,18.23
2019-02-28T13:25:46.366Z,19.43
2019-02-28T13:28:17.682Z,17.70
2019-02-28T13:30:50.388Z,18.63
2019-02-28T13:33:16.697Z,19.07
2019-02-28T13:35:47.326Z,20.00
2019-02-28T13:38:19.122Z,20.10
2019-02-28T13:40:47.485Z,20.30
2019-02-28T13:43:20.912Z,20.40
2019-02-28T13:45:50.936Z,19.90
2019-02-28T13:48:25.717Z,20.63
2019-02-28T13:50:48.440Z,20.90
2019-02-28T13:53:18.559Z,21.20
2019-02-28T13:55:48.022Z,19.97
2019-02-28T13:58:17.721Z,19.63
2019-02-28T14:00:47.736Z,21.10
2019-02-28T14:03:17.086Z,19.50
2019-02-28T14:05:46.374Z,20.97
2019-02-28T14:08:15.700Z,21.57
2019-02-28T14:10:44.901Z,20.13
2019-02-28T14:13:14.101Z,19.90
2019-02-28T14:15:43.621Z,20.97
2019-02-28T14:18:13.120Z,20.67
2019-02-28T14:20:42.003Z,19.90
2019-02-28T14:23:10.973Z,19.50
2019-02-28T14:25:41.230Z,19.33
2019-02-28T14:28:10.469Z,18.90
2019-02-28T14:30:39.511Z,19.67
2019-02-28T14:33:08.804Z,19.40
2019-02-28T14:35:38.727Z,18.97
2019-02-28T14:38:07.983Z,20.50
2019-02-28T14:40:36.929Z,21.50
2019-02-28T14:43:05.921Z,20.00
2019-02-28T14:45:35.301Z,20.10
2019-02-28T14:48:05.151Z,20.40
2019-02-28T14:50:34.120Z,19.43
2019-02-28T14:53:03.020Z,19.23
2019-02-28T14:55:32.754Z,20.03
2019-02-28T14:58:02.528Z,20.73
2019-02-28T15:00:31.324Z,19.60
2019-02-28T15:03:02.803Z,22.63
2019-02-28T15:05:31.360Z,18.20
2019-02-28T15:08:01.673Z,17.40
2019-02-28T15:10:34.249Z,17.03
2019-02-28T15:13:01.220Z,16.87
2019-02-28T15:15:30.209Z,17.60
2019-02-28T15:17:59.124Z,16.93
2019-02-28T15:20:31.582Z,16.23
2019-02-28T15:22:59.679Z,17.20
2019-02-28T15:25:28.865Z,16.30
2019-02-28T15:27:57.723Z,17.27
2019-02-28T15:30:30.481Z,18.30
2019-02-28T15:32:59.160Z,17.73
2019-02-28T15:35:28.168Z,16.87
2019-02-28T15:37:57.325Z,16.27
2019-02-28T15:40:31.669Z,16.60
2019-02-28T15:43:00.562Z,16.13
2019-02-28T15:45:29.692Z,11.90
2019-02-28T15:48:00.395Z,12.70
2019-02-28T15:50:29.669Z,14.27
2019-02-28T15:52:59.363Z,15.73
2019-02-28T15:55:28.791Z,15.27
2019-02-28T15:57:58.204Z,17.33
2019-02-28T16:00:29.035Z,17.57
2019-02-28T16:02:58.465Z,20.17
2019-02-28T16:05:27.414Z,21.97
2019-02-28T16:07:57.316Z,24.33
2019-02-28T16:10:28.614Z,26.60
2019-02-28T16:12:59.038Z,25.27
2019-02-28T16:15:28.536Z,23.63
2019-02-28T16:17:57.526Z,24.87
2019-02-28T16:20:28.467Z,24.47
2019-02-28T16:22:57.064Z,23.20
2019-02-28T16:25:28.093Z,23.10
2019-02-28T16:27:57.092Z,22.37
2019-02-28T16:30:28.704Z,22.27
2019-02-28T16:32:57.062Z,23.50
2019-02-28T16:35:25.965Z,21.27
2019-02-28T16:37:54.751Z,15.53
2019-02-28T16:40:26.889Z,14.47
2019-02-28T16:42:54.700Z,12.37
2019-02-28T16:45:33.354Z,10.50
2019-02-28T16:48:05.696Z,9.87
2019-02-28T16:50:35.201Z,7.97
2019-02-28T16:53:05.043Z,7.30
2019-02-28T16:55:34.173Z,8.50
2019-02-28T16:58:03.068Z,8.40
2019-02-28T17:00:32.140Z,9.00
2019-02-28T17:03:04.041Z,9.07
2019-02-28T17:05:31.710Z,8.40
2019-02-28T17:08:00.856Z,9.10
2019-02-28T17:10:40.063Z,9.40
2019-02-28T17:13:38.728Z,8.30
2019-02-28T17:16:24.308Z,8.10
2019-02-28T17:18:56.439Z,9.40
2019-02-28T17:21:24.116Z,8.93
2019-02-28T17:23:53.029Z,9.00
2019-02-28T17:26:40.061Z,8.00
2019-02-28T17:29:16.760Z,7.97
2019-02-28T17:31:48.168Z,9.37
2019-02-28T17:34:23.721Z,9.70
2019-02-28T17:36:50.464Z,8.37
2019-02-28T17:39:19.515Z,8.27
2019-02-28T17:41:48.500Z,8.70
2019-02-28T17:44:44.253Z,8.47
2019-02-28T17:47:47.444Z,8.20
2019-02-28T17:50:46.265Z,7.63
2019-02-28T17:53:34.205Z,8.53
2019-02-28T17:56:42.735Z,8.60
2019-02-28T17:59:58.945Z,8.37
2019-02-28T18:03:15.366Z,9.60
2019-02-28T18:06:26.984Z,9.70
2019-02-28T18:09:27.361Z,9.37
2019-02-28T18:12:52.504Z,8.23
2019-02-28T18:18:50.320Z,10.67
2019-02-28T18:21:58.492Z,8.80
2019-02-28T18:25:20.643Z,8.27
2019-02-28T18:28:46.630Z,8.63
2019-02-28T18:31:19.268Z,10.00
2019-02-28T18:34:00.761Z,10.20
2019-02-28T18:36:31.276Z,10.50
2019-02-28T18:39:00.164Z,11.40
2019-02-28T18:41:29.069Z,11.00
2019-02-28T18:44:00.044Z,11.00
2019-02-28T18:46:29.778Z,12.10
2019-02-28T18:48:59.372Z,11.33
2019-02-28T18:51:28.341Z,11.00
2019-02-28T18:53:57.261Z,11.80
2019-02-28T18:56:26.285Z,14.97
2019-02-28T18:58:55.293Z,11.97
2019-02-28T19:01:24.246Z,12.13
2019-02-28T19:03:53.130Z,13.07
2019-02-28T19:06:22.033Z,11.70
2019-02-28T19:08:50.927Z,13.30
2019-02-28T19:11:19.920Z,13.37
2019-02-28T19:13:48.860Z,13.87
2019-02-28T19:16:17.953Z,13.77
2019-02-28T19:18:46.884Z,13.17
2019-02-28T19:21:15.860Z,13.53
2019-02-28T19:23:44.731Z,12.30
2019-02-28T19:26:13.552Z,12.30
2019-02-28T19:28:42.492Z,12.30
2019-02-28T19:31:11.364Z,13.33
2019-02-28T19:33:40.414Z,12.43
2019-02-28T19:36:09.303Z,14.50
2019-02-28T19:38:38.097Z,16.13
2019-02-28T19:41:06.980Z,13.40
2019-02-28T19:43:35.968Z,13.87
2019-02-28T19:46:05.258Z,15.30
2019-02-28T19:48:36.838Z,13.17
2019-02-28T19:51:06.049Z,12.53
2019-02-28T19:53:34.956Z,12.93
2019-02-28T19:56:04.397Z,12.80
2019-02-28T19:58:33.277Z,12.60
2019-02-28T20:01:02.280Z,12.60
2019-02-28T20:03:31.236Z,11.53
2019-02-28T20:06:00.553Z,12.17
2019-02-28T20:08:29.487Z,11.43
2019-02-28T20:10:58.380Z,11.13
2019-02-28T20:13:27.257Z,11.37
2019-02-28T20:15:56.454Z,9.90
2019-02-28T20:18:25.449Z,10.10
2019-02-28T20:20:54.468Z,10.27
2019-02-28T20:23:24.823Z,9.93
2019-02-28T20:25:53.823Z,9.03
2019-02-28T20:28:23.107Z,8.17
2019-02-28T20:30:52.115Z,9.97
2019-02-28T20:33:21.290Z,8.97
2019-02-28T20:35:50.377Z,8.97
2019-02-28T20:38:19.668Z,7.97
2019-02-28T20:40:48.642Z,7.30
2019-02-28T20:43:17.464Z,7.97
2019-02-28T20:45:46.612Z,7.53
2019-02-28T20:48:16.061Z,7.17
2019-02-28T20:50:46.247Z,7.33
2019-02-28T20:53:15.664Z,7.10
2019-02-28T20:55:44.464Z,7.30
2019-02-28T20:58:13.343Z,6.67
2019-02-28T21:00:42.340Z,6.77
2019-02-28T21:03:11.592Z,7.67
2019-02-28T21:05:40.565Z,7.73
2019-02-28T21:08:09.476Z,7.10
2019-02-28T21:10:38.593Z,6.03
2019-02-28T21:13:07.604Z,6.60
2019-02-28T21:15:36.868Z,6.90
2019-02-28T21:18:05.833Z,7.30
2019-02-28T21:20:34.728Z,6.17
2019-02-28T21:23:03.705Z,6.13
2019-02-28T21:25:32.613Z,6.37
2019-02-28T21:28:01.572Z,6.00
2019-02-28T21:30:30.585Z,5.23
2019-02-28T21:32:59.509Z,5.47
2019-02-28T21:35:28.970Z,5.80
2019-02-28T21:37:58.109Z,6.00
2019-02-28T21:40:27.025Z,5.47
2019-02-28T21:42:55.792Z,6.03
2019-02-28T21:45:24.798Z,6.17
2019-02-28T21:47:53.892Z,5.80
2019-02-28T21:50:23.404Z,5.47
2019-02-28T21:52:52.394Z,5.10
2019-02-28T21:55:21.164Z,5.53
2019-02-28T21:57:50.080Z,6.00
2019-02-28T22:00:21.402Z,5.63
2019-02-28T22:02:50.425Z,5.83
2019-02-28T22:05:19.508Z,5.93
2019-02-28T22:07:48.430Z,5.57
2019-02-28T22:10:17.577Z,6.43
2019-02-28T22:12:46.871Z,6.90
2019-02-28T22:15:16.904Z,6.00
2019-02-28T22:17:45.846Z,5.30
2019-02-28T22:20:15.398Z,6.33
2019-02-28T22:22:44.338Z,6.73
2019-02-28T22:25:13.380Z,6.00
2019-02-28T22:27:42.313Z,5.37
2019-02-28T22:30:50.197Z,5.57
2019-02-28T22:33:36.164Z,4.83
2019-02-28T22:36:05.760Z,5.33
2019-02-28T22:38:39.131Z,4.30
2019-02-28T22:41:07.915Z,5.23
2019-02-28T22:43:36.819Z,5.57
2019-02-28T22:46:05.768Z,4.10
2019-02-28T22:48:34.928Z,5.20
2019-02-28T22:51:04.130Z,5.87
2019-02-28T22:53:32.940Z,5.60
2019-02-28T22:56:01.821Z,4.30
2019-02-28T22:58:30.708Z,4.10
2019-02-28T23:01:03.622Z,4.47
2019-02-28T23:03:33.216Z,4.57
2019-02-28T23:06:02.336Z,5.03
2019-02-28T23:08:31.317Z,5.40
2019-02-28T23:11:00.260Z,4.40
2019-02-28T23:13:29.238Z,4.97
2019-02-28T23:15:58.136Z,4.37
2019-02-28T23:18:27.036Z,4.23
2019-02-28T23:20:55.952Z,5.53
2019-02-28T23:23:24.986Z,5.60
2019-02-28T23:25:53.896Z,4.57
2019-02-28T23:28:28.376Z,4.53
2019-02-28T23:31:27.973Z,4.47
2019-02-28T23:34:01.343Z,4.00
2019-02-28T23:36:29.034Z,4.10
2019-02-28T23:38:57.989Z,4.27
2019-02-28T23:41:26.881Z,3.70
2019-02-28T23:43:55.876Z,3.60
2019-02-28T23:46:25.072Z,3.37
2019-02-28T23:48:53.880Z,3.63
2019-02-28T23:51:22.840Z,3.60
2019-02-28T23:53:52.147Z,3.03
2019-02-28T23:56:21.172Z,2.53
2019-02-28T23:58:49.964Z,3.10
